sensor_id;sensor_type;location;lat;lon;timestamp;P1;durP1;ratioP1;P2;durP2;ratioP2
3995;SDS011;2012;49.794;9.722;2022-12-16T00:00:06;21.97;;;10.37;;
3995;SDS011;2012;49.794;9.722;2022-12-16T00:02:35;22.07;;;11.87;;
3995;SDS011;2012;49.794;9.722;2022-12-16T00:05:02;18.50;;;10.00;;
3995;SDS011;2012;49.794;9.722;2022-12-16T00:07:29;19.03;;;11.03;;
3995;SDS011;2012;49.794;9.722;2022-12-16T00:09:56;25.90;;;11.67;;
3995;SDS011;2012;49.794;9.722;2022-12-16T00:12:22;20.70;;;11.30;;
3995;SDS011;2012;49.794;9.722;2022-12-16T00:14:49;15.47;;;9.47;;
3995;SDS011;2012;49.794;9.722;2022-12-16T00:17:16;17.77;;;10.27;;
3995;SDS011;2012;49.794;9.722;2022-12-16T00:19:43;17.27;;;9.40;;
3995;SDS011;2012;49.794;9.722;2022-12-16T00:22:10;17.40;;;9.83;;
3995;SDS011;2012;49.794;9.722;2022-12-16T00:24:36;20.00;;;10.63;;
3995;SDS011;2012;49.794;9.722;2022-12-16T00:27:03;20.40;;;11.13;;
3995;SDS011;2012;49.794;9.722;2022-12-16T00:29:30;16.10;;;10.50;;
3995;SDS011;2012;49.794;9.722;2022-12-16T00:31:57;13.87;;;9.10;;
3995;SDS011;2012;49.794;9.722;2022-12-16T00:34:23;17.60;;;8.97;;
3995;SDS011;2012;49.794;9.722;2022-12-16T00:36:50;15.43;;;9.70;;
3995;SDS011;2012;49.794;9.722;2022-12-16T00:39:17;14.80;;;9.63;;
3995;SDS011;2012;49.794;9.722;2022-12-16T00:41:44;14.90;;;9.87;;
3995;SDS011;2012;49.794;9.722;2022-12-16T00:44:12;20.00;;;10.20;;
3995;SDS011;2012;49.794;9.722;2022-12-16T00:46:39;14.70;;;9.90;;
3995;SDS011;2012;49.794;9.722;2022-12-16T00:49:06;19.83;;;10.83;;
3995;SDS011;2012;49.794;9.722;2022-12-16T00:51:33;17.80;;;9.90;;
3995;SDS011;2012;49.794;9.722;2022-12-16T00:53:59;15.67;;;9.90;;
3995;SDS011;2012;49.794;9.722;2022-12-16T00:56:26;17.33;;;10.60;;
3995;SDS011;2012;49.794;9.722;2022-12-16T00:58:53;17.43;;;9.20;;
3995;SDS011;2012;49.794;9.722;2022-12-16T01:01:20;19.73;;;10.07;;
3995;SDS011;2012;49.794;9.722;2022-12-16T01:03:46;18.70;;;10.50;;
3995;SDS011;2012;49.794;9.722;2022-12-16T01:06:14;17.73;;;9.87;;
3995;SDS011;2012;49.794;9.722;2022-12-16T01:08:42;19.47;;;11.40;;
3995;SDS011;2012;49.794;9.722;2022-12-16T01:11:16;15.90;;;9.80;;
3995;SDS011;2012;49.794;9.722;2022-12-16T01:13:44;20.27;;;10.93;;
3995;SDS011;2012;49.794;9.722;2022-12-16T01:16:12;14.90;;;9.97;;
3995;SDS011;2012;49.794;9.722;2022-12-16T01:18:40;13.90;;;9.63;;
3995;SDS011;2012;49.794;9.722;2022-12-16T01:21:07;14.10;;;9.30;;
3995;SDS011;2012;49.794;9.722;2022-12-16T01:23:37;16.83;;;8.60;;
3995;SDS011;2012;49.794;9.722;2022-12-16T01:26:04;16.97;;;9.70;;
3995;SDS011;2012;49.794;9.722;2022-12-16T01:28:31;17.40;;;9.30;;
3995;SDS011;2012;49.794;9.722;2022-12-16T01:30:58;16.10;;;9.03;;
3995;SDS011;2012;49.794;9.722;2022-12-16T01:33:30;14.63;;;8.53;;
3995;SDS011;2012;49.794;9.722;2022-12-16T01:36:02;16.13;;;9.03;;
3995;SDS011;2012;49.794;9.722;2022-12-16T01:38:31;15.07;;;8.70;;
3995;SDS011;2012;49.794;9.722;2022-12-16T01:40:58;17.33;;;9.33;;
3995;SDS011;2012;49.794;9.722;2022-12-16T01:43:26;16.60;;;9.20;;
3995;SDS011;2012;49.794;9.722;2022-12-16T01:45:57;21.33;;;9.77;;
3995;SDS011;2012;49.794;9.722;2022-12-16T01:51:20;12.67;;;8.10;;
3995;SDS011;2012;49.794;9.722;2022-12-16T01:53:56;12.93;;;8.10;;
3995;SDS011;2012;49.794;9.722;2022-12-16T01:56:27;20.60;;;10.10;;
3995;SDS011;2012;49.794;9.722;2022-12-16T01:58:56;14.90;;;9.50;;
3995;SDS011;2012;49.794;9.722;2022-12-16T02:01:24;14.33;;;9.03;;
3995;SDS011;2012;49.794;9.722;2022-12-16T02:03:51;15.10;;;8.60;;
3995;SDS011;2012;49.794;9.722;2022-12-16T02:06:20;15.90;;;8.90;;
3995;SDS011;2012;49.794;9.722;2022-12-16T02:08:47;14.73;;;8.73;;
3995;SDS011;2012;49.794;9.722;2022-12-16T02:11:23;12.90;;;8.47;;
3995;SDS011;2012;49.794;9.722;2022-12-16T02:14:17;14.60;;;8.13;;
3995;SDS011;2012;49.794;9.722;2022-12-16T02:20:09;14.00;;;9.13;;
3995;SDS011;2012;49.794;9.722;2022-12-16T02:26:02;14.30;;;8.40;;
3995;SDS011;2012;49.794;9.722;2022-12-16T02:31:24;13.27;;;7.13;;
3995;SDS011;2012;49.794;9.722;2022-12-16T02:36:55;12.40;;;7.97;;
3995;SDS011;2012;49.794;9.722;2022-12-16T02:39:42;14.57;;;8.30;;
3995;SDS011;2012;49.794;9.722;2022-12-16T02:42:18;12.63;;;7.70;;
3995;SDS011;2012;49.794;9.722;2022-12-16T02:45:18;13.43;;;7.63;;
3995;SDS011;2012;49.794;9.722;2022-12-16T02:47:50;11.97;;;7.40;;
3995;SDS011;2012;49.794;9.722;2022-12-16T02:50:36;13.67;;;7.97;;
3995;SDS011;2012;49.794;9.722;2022-12-16T02:53:08;13.47;;;8.37;;
3995;SDS011;2012;49.794;9.722;2022-12-16T02:55:58;15.00;;;8.50;;
3995;SDS011;2012;49.794;9.722;2022-12-16T03:04:35;13.00;;;7.50;;
3995;SDS011;2012;49.794;9.722;2022-12-16T03:07:10;11.20;;;7.17;;
3995;SDS011;2012;49.794;9.722;2022-12-16T03:09:40;12.23;;;7.73;;
3995;SDS011;2012;49.794;9.722;2022-12-16T03:12:10;14.10;;;7.67;;
3995;SDS011;2012;49.794;9.722;2022-12-16T03:14:40;12.67;;;7.33;;
3995;SDS011;2012;49.794;9.722;2022-12-16T03:17:09;12.40;;;7.70;;
3995;SDS011;2012;49.794;9.722;2022-12-16T03:19:38;10.50;;;7.30;;
3995;SDS011;2012;49.794;9.722;2022-12-16T03:22:13;11.50;;;7.43;;
3995;SDS011;2012;49.794;9.722;2022-12-16T03:24:53;12.73;;;6.83;;
3995;SDS011;2012;49.794;9.722;2022-12-16T03:30:26;12.50;;;7.90;;
3995;SDS011;2012;49.794;9.722;2022-12-16T03:36:14;9.43;;;6.30;;
3995;SDS011;2012;49.794;9.722;2022-12-16T03:38:46;12.57;;;7.50;;
3995;SDS011;2012;49.794;9.722;2022-12-16T03:41:15;13.40;;;7.50;;
3995;SDS011;2012;49.794;9.722;2022-12-16T03:43:43;14.00;;;6.60;;
3995;SDS011;2012;49.794;9.722;2022-12-16T03:46:10;11.63;;;7.33;;
3995;SDS011;2012;49.794;9.722;2022-12-16T03:48:44;10.77;;;6.80;;
3995;SDS011;2012;49.794;9.722;2022-12-16T03:51:11;13.53;;;7.90;;
3995;SDS011;2012;49.794;9.722;2022-12-16T03:53:38;10.50;;;7.00;;
3995;SDS011;2012;49.794;9.722;2022-12-16T03:56:05;15.23;;;8.33;;
3995;SDS011;2012;49.794;9.722;2022-12-16T03:58:32;11.40;;;7.00;;
3995;SDS011;2012;49.794;9.722;2022-12-16T04:01:00;12.50;;;7.57;;
3995;SDS011;2012;49.794;9.722;2022-12-16T04:03:27;12.80;;;7.30;;
3995;SDS011;2012;49.794;9.722;2022-12-16T04:05:54;12.50;;;7.50;;
3995;SDS011;2012;49.794;9.722;2022-12-16T04:08:20;12.57;;;7.20;;
3995;SDS011;2012;49.794;9.722;2022-12-16T04:10:49;11.23;;;6.90;;
3995;SDS011;2012;49.794;9.722;2022-12-16T04:13:36;13.07;;;7.13;;
3995;SDS011;2012;49.794;9.722;2022-12-16T04:16:22;13.63;;;7.60;;
3995;SDS011;2012;49.794;9.722;2022-12-16T04:19:20;13.37;;;7.10;;
3995;SDS011;2012;49.794;9.722;2022-12-16T04:22:12;10.30;;;6.60;;
3995;SDS011;2012;49.794;9.722;2022-12-16T04:25:05;11.93;;;6.93;;
3995;SDS011;2012;49.794;9.722;2022-12-16T04:27:35;11.07;;;6.73;;
3995;SDS011;2012;49.794;9.722;2022-12-16T04:30:02;12.23;;;6.87;;
3995;SDS011;2012;49.794;9.722;2022-12-16T04:32:49;10.90;;;7.20;;
3995;SDS011;2012;49.794;9.722;2022-12-16T04:35:35;9.77;;;6.70;;
3995;SDS011;2012;49.794;9.722;2022-12-16T04:38:21;11.23;;;7.13;;
3995;SDS011;2012;49.794;9.722;2022-12-16T04:41:06;13.00;;;7.70;;
3995;SDS011;2012;49.794;9.722;2022-12-16T04:43:52;8.63;;;5.10;;
3995;SDS011;2012;49.794;9.722;2022-12-16T04:46:37;9.60;;;5.50;;
3995;SDS011;2012;49.794;9.722;2022-12-16T04:49:23;7.73;;;5.00;;
3995;SDS011;2012;49.794;9.722;2022-12-16T04:52:08;7.67;;;4.80;;
3995;SDS011;2012;49.794;9.722;2022-12-16T04:54:54;5.30;;;3.93;;
3995;SDS011;2012;49.794;9.722;2022-12-16T04:57:39;6.90;;;4.33;;
3995;SDS011;2012;49.794;9.722;2022-12-16T05:00:27;6.50;;;4.10;;
3995;SDS011;2012;49.794;9.722;2022-12-16T05:03:12;4.80;;;4.17;;
3995;SDS011;2012;49.794;9.722;2022-12-16T05:05:59;6.27;;;4.27;;
3995;SDS011;2012;49.794;9.722;2022-12-16T05:08:44;5.93;;;4.00;;
3995;SDS011;2012;49.794;9.722;2022-12-16T05:11:30;6.80;;;4.23;;
3995;SDS011;2012;49.794;9.722;2022-12-16T05:14:15;4.70;;;4.17;;
3995;SDS011;2012;49.794;9.722;2022-12-16T05:17:01;6.00;;;4.03;;
3995;SDS011;2012;49.794;9.722;2022-12-16T05:19:46;3.63;;;2.93;;
3995;SDS011;2012;49.794;9.722;2022-12-16T05:22:32;6.10;;;4.80;;
3995;SDS011;2012;49.794;9.722;2022-12-16T05:25:17;6.20;;;3.80;;
3995;SDS011;2012;49.794;9.722;2022-12-16T05:28:03;6.90;;;3.60;;
3995;SDS011;2012;49.794;9.722;2022-12-16T05:30:48;6.70;;;4.53;;
3995;SDS011;2012;49.794;9.722;2022-12-16T05:33:34;3.87;;;3.33;;
3995;SDS011;2012;49.794;9.722;2022-12-16T05:36:19;6.97;;;4.67;;
3995;SDS011;2012;49.794;9.722;2022-12-16T05:39:24;8.60;;;5.33;;
3995;SDS011;2012;49.794;9.722;2022-12-16T05:42:10;5.20;;;4.00;;
3995;SDS011;2012;49.794;9.722;2022-12-16T05:44:55;5.43;;;4.17;;
3995;SDS011;2012;49.794;9.722;2022-12-16T05:47:40;4.20;;;3.50;;
3995;SDS011;2012;49.794;9.722;2022-12-16T05:50:26;5.50;;;3.43;;
3995;SDS011;2012;49.794;9.722;2022-12-16T05:53:16;4.30;;;3.53;;
3995;SDS011;2012;49.794;9.722;2022-12-16T05:56:02;5.40;;;3.23;;
3995;SDS011;2012;49.794;9.722;2022-12-16T05:58:47;4.10;;;3.60;;
3995;SDS011;2012;49.794;9.722;2022-12-16T06:01:33;3.57;;;3.27;;
3995;SDS011;2012;49.794;9.722;2022-12-16T06:04:18;4.90;;;3.50;;
3995;SDS011;2012;49.794;9.722;2022-12-16T06:07:03;4.90;;;3.10;;
3995;SDS011;2012;49.794;9.722;2022-12-16T06:09:49;7.00;;;3.63;;
3995;SDS011;2012;49.794;9.722;2022-12-16T06:12:34;7.10;;;4.30;;
3995;SDS011;2012;49.794;9.722;2022-12-16T06:15:20;7.43;;;3.97;;
3995;SDS011;2012;49.794;9.722;2022-12-16T06:18:05;4.87;;;3.87;;
3995;SDS011;2012;49.794;9.722;2022-12-16T06:20:51;5.67;;;4.17;;
3995;SDS011;2012;49.794;9.722;2022-12-16T06:23:36;6.63;;;4.73;;
3995;SDS011;2012;49.794;9.722;2022-12-16T06:26:21;7.90;;;4.40;;
3995;SDS011;2012;49.794;9.722;2022-12-16T06:29:08;7.40;;;4.30;;
3995;SDS011;2012;49.794;9.722;2022-12-16T06:31:53;4.40;;;3.00;;
3995;SDS011;2012;49.794;9.722;2022-12-16T06:34:38;5.37;;;3.80;;
3995;SDS011;2012;49.794;9.722;2022-12-16T06:37:24;7.23;;;3.80;;
3995;SDS011;2012;49.794;9.722;2022-12-16T06:40:09;7.90;;;4.30;;
3995;SDS011;2012;49.794;9.722;2022-12-16T06:42:55;5.33;;;4.17;;
3995;SDS011;2012;49.794;9.722;2022-12-16T06:45:40;6.50;;;4.23;;
3995;SDS011;2012;49.794;9.722;2022-12-16T06:48:25;5.73;;;4.13;;
3995;SDS011;2012;49.794;9.722;2022-12-16T06:51:11;6.40;;;3.93;;
3995;SDS011;2012;49.794;9.722;2022-12-16T06:53:56;4.97;;;4.10;;
3995;SDS011;2012;49.794;9.722;2022-12-16T06:56:41;6.97;;;4.40;;
3995;SDS011;2012;49.794;9.722;2022-12-16T06:59:27;8.03;;;5.07;;
3995;SDS011;2012;49.794;9.722;2022-12-16T07:02:12;8.23;;;4.90;;
3995;SDS011;2012;49.794;9.722;2022-12-16T07:04:58;7.13;;;5.43;;
3995;SDS011;2012;49.794;9.722;2022-12-16T07:07:50;7.10;;;4.70;;
3995;SDS011;2012;49.794;9.722;2022-12-16T07:10:36;8.07;;;5.13;;
3995;SDS011;2012;49.794;9.722;2022-12-16T07:13:38;6.77;;;4.60;;
3995;SDS011;2012;49.794;9.722;2022-12-16T07:16:24;8.13;;;5.20;;
3995;SDS011;2012;49.794;9.722;2022-12-16T07:19:09;7.73;;;4.67;;
3995;SDS011;2012;49.794;9.722;2022-12-16T07:21:54;8.33;;;4.97;;
3995;SDS011;2012;49.794;9.722;2022-12-16T07:24:40;6.40;;;4.43;;
3995;SDS011;2012;49.794;9.722;2022-12-16T07:27:25;7.23;;;4.23;;
3995;SDS011;2012;49.794;9.722;2022-12-16T07:30:11;5.83;;;4.57;;
3995;SDS011;2012;49.794;9.722;2022-12-16T07:32:56;11.00;;;5.67;;
3995;SDS011;2012;49.794;9.722;2022-12-16T07:35:42;9.33;;;5.10;;
3995;SDS011;2012;49.794;9.722;2022-12-16T07:38:27;4.87;;;4.30;;
3995;SDS011;2012;49.794;9.722;2022-12-16T07:41:13;7.83;;;4.73;;
3995;SDS011;2012;49.794;9.722;2022-12-16T07:43:58;7.90;;;4.77;;
3995;SDS011;2012;49.794;9.722;2022-12-16T07:46:43;7.30;;;5.07;;
3995;SDS011;2012;49.794;9.722;2022-12-16T07:49:29;6.40;;;4.57;;
3995;SDS011;2012;49.794;9.722;2022-12-16T07:52:14;5.80;;;4.70;;
3995;SDS011;2012;49.794;9.722;2022-12-16T07:55:00;6.60;;;4.93;;
3995;SDS011;2012;49.794;9.722;2022-12-16T07:57:49;11.67;;;5.47;;
3995;SDS011;2012;49.794;9.722;2022-12-16T08:00:35;7.10;;;4.70;;
3995;SDS011;2012;49.794;9.722;2022-12-16T08:03:21;5.13;;;4.30;;
3995;SDS011;2012;49.794;9.722;2022-12-16T08:06:06;8.63;;;4.70;;
3995;SDS011;2012;49.794;9.722;2022-12-16T08:08:52;6.43;;;4.77;;
3995;SDS011;2012;49.794;9.722;2022-12-16T08:11:37;5.97;;;4.60;;
3995;SDS011;2012;49.794;9.722;2022-12-16T08:14:23;6.13;;;4.60;;
3995;SDS011;2012;49.794;9.722;2022-12-16T08:17:08;9.10;;;5.00;;
3995;SDS011;2012;49.794;9.722;2022-12-16T08:19:53;7.77;;;5.17;;
3995;SDS011;2012;49.794;9.722;2022-12-16T08:22:39;7.10;;;5.03;;
3995;SDS011;2012;49.794;9.722;2022-12-16T08:25:24;6.87;;;5.13;;
3995;SDS011;2012;49.794;9.722;2022-12-16T08:28:10;9.30;;;6.00;;
3995;SDS011;2012;49.794;9.722;2022-12-16T08:30:55;14.87;;;5.23;;
3995;SDS011;2012;49.794;9.722;2022-12-16T08:33:41;11.37;;;7.03;;
3995;SDS011;2012;49.794;9.722;2022-12-16T08:36:26;9.63;;;6.20;;
3995;SDS011;2012;49.794;9.722;2022-12-16T08:39:12;12.90;;;7.20;;
3995;SDS011;2012;49.794;9.722;2022-12-16T08:41:57;9.57;;;6.50;;
3995;SDS011;2012;49.794;9.722;2022-12-16T08:44:42;19.87;;;13.33;;
3995;SDS011;2012;49.794;9.722;2022-12-16T08:47:27;19.87;;;12.87;;
3995;SDS011;2012;49.794;9.722;2022-12-16T08:50:13;21.43;;;11.60;;
3995;SDS011;2012;49.794;9.722;2022-12-16T08:52:59;20.70;;;12.97;;
3995;SDS011;2012;49.794;9.722;2022-12-16T08:55:44;38.33;;;21.17;;
3995;SDS011;2012;49.794;9.722;2022-12-16T08:58:29;48.17;;;25.23;;
3995;SDS011;2012;49.794;9.722;2022-12-16T09:01:15;35.00;;;18.03;;
3995;SDS011;2012;49.794;9.722;2022-12-16T09:04:00;36.00;;;18.50;;
3995;SDS011;2012;49.794;9.722;2022-12-16T09:06:46;35.17;;;20.03;;
3995;SDS011;2012;49.794;9.722;2022-12-16T09:09:31;38.10;;;20.80;;
3995;SDS011;2012;49.794;9.722;2022-12-16T09:12:17;38.83;;;21.13;;
3995;SDS011;2012;49.794;9.722;2022-12-16T09:15:13;37.20;;;20.73;;
3995;SDS011;2012;49.794;9.722;2022-12-16T09:17:58;33.30;;;17.60;;
3995;SDS011;2012;49.794;9.722;2022-12-16T09:20:44;24.47;;;14.57;;
3995;SDS011;2012;49.794;9.722;2022-12-16T09:23:29;24.73;;;13.47;;
3995;SDS011;2012;49.794;9.722;2022-12-16T09:26:15;17.90;;;10.33;;
3995;SDS011;2012;49.794;9.722;2022-12-16T09:29:00;15.10;;;7.90;;
3995;SDS011;2012;49.794;9.722;2022-12-16T09:31:46;13.33;;;8.27;;
3995;SDS011;2012;49.794;9.722;2022-12-16T09:34:31;11.33;;;7.57;;
3995;SDS011;2012;49.794;9.722;2022-12-16T09:37:17;12.40;;;6.97;;
3995;SDS011;2012;49.794;9.722;2022-12-16T09:40:03;10.70;;;6.30;;
3995;SDS011;2012;49.794;9.722;2022-12-16T09:46:23;10.83;;;6.90;;
3995;SDS011;2012;49.794;9.722;2022-12-16T09:52:25;8.53;;;6.47;;
3995;SDS011;2012;49.794;9.722;2022-12-16T09:55:17;10.63;;;6.50;;
3995;SDS011;2012;49.794;9.722;2022-12-16T09:58:07;9.43;;;6.80;;
3995;SDS011;2012;49.794;9.722;2022-12-16T10:00:55;12.80;;;7.63;;
3995;SDS011;2012;49.794;9.722;2022-12-16T10:03:41;11.87;;;6.70;;
3995;SDS011;2012;49.794;9.722;2022-12-16T10:09:27;11.30;;;7.00;;
3995;SDS011;2012;49.794;9.722;2022-12-16T10:18:54;10.93;;;6.70;;
3995;SDS011;2012;49.794;9.722;2022-12-16T10:22:03;10.10;;;5.60;;
3995;SDS011;2012;49.794;9.722;2022-12-16T10:28:16;8.83;;;5.87;;
3995;SDS011;2012;49.794;9.722;2022-12-16T10:31:04;6.53;;;5.27;;
3995;SDS011;2012;49.794;9.722;2022-12-16T10:33:59;7.90;;;5.03;;
3995;SDS011;2012;49.794;9.722;2022-12-16T10:36:45;8.53;;;5.37;;
3995;SDS011;2012;49.794;9.722;2022-12-16T10:39:40;9.07;;;4.93;;
3995;SDS011;2012;49.794;9.722;2022-12-16T10:42:35;6.60;;;4.00;;
3995;SDS011;2012;49.794;9.722;2022-12-16T10:45:28;8.70;;;4.53;;
3995;SDS011;2012;49.794;9.722;2022-12-16T10:48:16;6.77;;;4.70;;
3995;SDS011;2012;49.794;9.722;2022-12-16T10:51:22;7.60;;;4.77;;
3995;SDS011;2012;49.794;9.722;2022-12-16T10:57:54;6.70;;;5.03;;
3995;SDS011;2012;49.794;9.722;2022-12-16T11:01:00;14.00;;;5.50;;
3995;SDS011;2012;49.794;9.722;2022-12-16T11:04:20;6.13;;;4.63;;
3995;SDS011;2012;49.794;9.722;2022-12-16T11:10:34;11.87;;;5.30;;
3995;SDS011;2012;49.794;9.722;2022-12-16T11:13:25;7.60;;;5.53;;
3995;SDS011;2012;49.794;9.722;2022-12-16T11:16:13;13.73;;;5.93;;
3995;SDS011;2012;49.794;9.722;2022-12-16T11:19:19;6.60;;;4.70;;
3995;SDS011;2012;49.794;9.722;2022-12-16T11:22:12;9.43;;;5.27;;
3995;SDS011;2012;49.794;9.722;2022-12-16T11:25:15;8.93;;;5.43;;
3995;SDS011;2012;49.794;9.722;2022-12-16T11:30:56;9.33;;;6.00;;
3995;SDS011;2012;49.794;9.722;2022-12-16T11:33:44;8.23;;;4.97;;
3995;SDS011;2012;49.794;9.722;2022-12-16T11:36:30;7.60;;;4.40;;
3995;SDS011;2012;49.794;9.722;2022-12-16T11:39:17;21.73;;;4.90;;
3995;SDS011;2012;49.794;9.722;2022-12-16T11:42:05;8.70;;;4.80;;
3995;SDS011;2012;49.794;9.722;2022-12-16T11:44:54;7.83;;;5.07;;
3995;SDS011;2012;49.794;9.722;2022-12-16T11:47:46;11.53;;;4.50;;
3995;SDS011;2012;49.794;9.722;2022-12-16T11:50:40;9.27;;;5.80;;
3995;SDS011;2012;49.794;9.722;2022-12-16T11:56:37;12.47;;;5.40;;
3995;SDS011;2012;49.794;9.722;2022-12-16T11:59:29;12.87;;;5.80;;
3995;SDS011;2012;49.794;9.722;2022-12-16T12:02:27;9.53;;;5.33;;
3995;SDS011;2012;49.794;9.722;2022-12-16T12:05:32;14.80;;;6.97;;
3995;SDS011;2012;49.794;9.722;2022-12-16T12:11:44;6.30;;;4.20;;
3995;SDS011;2012;49.794;9.722;2022-12-16T12:14:50;8.77;;;5.37;;
3995;SDS011;2012;49.794;9.722;2022-12-16T12:17:44;9.10;;;5.53;;
3995;SDS011;2012;49.794;9.722;2022-12-16T12:20:49;13.27;;;6.03;;
3995;SDS011;2012;49.794;9.722;2022-12-16T12:26:35;7.60;;;4.63;;
3995;SDS011;2012;49.794;9.722;2022-12-16T12:38:17;8.43;;;4.50;;
3995;SDS011;2012;49.794;9.722;2022-12-16T12:44:36;9.63;;;4.87;;
3995;SDS011;2012;49.794;9.722;2022-12-16T12:47:51;11.47;;;4.17;;
3995;SDS011;2012;49.794;9.722;2022-12-16T12:57:17;10.03;;;5.57;;
3995;SDS011;2012;49.794;9.722;2022-12-16T13:06:03;6.93;;;4.37;;
3995;SDS011;2012;49.794;9.722;2022-12-16T13:11:35;7.30;;;5.23;;
3995;SDS011;2012;49.794;9.722;2022-12-16T13:17:20;20.90;;;10.73;;
3995;SDS011;2012;49.794;9.722;2022-12-16T13:26:17;13.83;;;6.80;;
3995;SDS011;2012;49.794;9.722;2022-12-16T13:29:27;12.23;;;7.27;;
3995;SDS011;2012;49.794;9.722;2022-12-16T13:32:24;14.60;;;8.27;;
3995;SDS011;2012;49.794;9.722;2022-12-16T13:40:58;14.27;;;8.87;;
3995;SDS011;2012;49.794;9.722;2022-12-16T13:46:38;17.60;;;9.33;;
3995;SDS011;2012;49.794;9.722;2022-12-16T13:52:22;12.50;;;7.60;;
3995;SDS011;2012;49.794;9.722;2022-12-16T13:55:28;16.90;;;6.93;;
3995;SDS011;2012;49.794;9.722;2022-12-16T13:58:40;13.60;;;7.30;;
3995;SDS011;2012;49.794;9.722;2022-12-16T14:01:28;31.10;;;16.13;;
3995;SDS011;2012;49.794;9.722;2022-12-16T14:04:19;40.10;;;21.10;;
3995;SDS011;2012;49.794;9.722;2022-12-16T14:07:11;47.53;;;25.90;;
3995;SDS011;2012;49.794;9.722;2022-12-16T14:10:00;30.17;;;18.53;;
3995;SDS011;2012;49.794;9.722;2022-12-16T14:18:50;24.37;;;13.60;;
3995;SDS011;2012;49.794;9.722;2022-12-16T14:21:49;16.33;;;9.57;;
3995;SDS011;2012;49.794;9.722;2022-12-16T14:24:40;28.67;;;13.83;;
3995;SDS011;2012;49.794;9.722;2022-12-16T14:27:33;19.77;;;9.70;;
3995;SDS011;2012;49.794;9.722;2022-12-16T14:30:23;22.10;;;12.30;;
3995;SDS011;2012;49.794;9.722;2022-12-16T14:33:16;89.60;;;29.00;;
3995;SDS011;2012;49.794;9.722;2022-12-16T14:36:19;60.50;;;22.00;;
3995;SDS011;2012;49.794;9.722;2022-12-16T14:39:19;19.27;;;11.20;;
3995;SDS011;2012;49.794;9.722;2022-12-16T14:42:23;19.27;;;9.63;;
3995;SDS011;2012;49.794;9.722;2022-12-16T14:48:35;16.70;;;8.40;;
3995;SDS011;2012;49.794;9.722;2022-12-16T14:51:29;15.07;;;8.33;;
3995;SDS011;2012;49.794;9.722;2022-12-16T14:57:24;16.93;;;9.40;;
3995;SDS011;2012;49.794;9.722;2022-12-16T15:00:12;18.20;;;9.30;;
3995;SDS011;2012;49.794;9.722;2022-12-16T15:03:17;22.63;;;10.17;;
3995;SDS011;2012;49.794;9.722;2022-12-16T15:06:30;28.53;;;14.13;;
3995;SDS011;2012;49.794;9.722;2022-12-16T15:12:15;16.17;;;10.60;;
3995;SDS011;2012;49.794;9.722;2022-12-16T15:15:05;18.37;;;8.87;;
3995;SDS011;2012;49.794;9.722;2022-12-16T15:17:57;18.97;;;9.80;;
3995;SDS011;2012;49.794;9.722;2022-12-16T15:23:39;13.80;;;7.67;;
3995;SDS011;2012;49.794;9.722;2022-12-16T15:26:28;11.83;;;8.13;;
3995;SDS011;2012;49.794;9.722;2022-12-16T15:35:24;13.30;;;8.20;;
3995;SDS011;2012;49.794;9.722;2022-12-16T15:38:31;16.13;;;8.40;;
3995;SDS011;2012;49.794;9.722;2022-12-16T15:44:24;14.37;;;6.77;;
3995;SDS011;2012;49.794;9.722;2022-12-16T15:47:47;11.00;;;7.40;;
3995;SDS011;2012;49.794;9.722;2022-12-16T15:50:23;12.80;;;7.30;;
3995;SDS011;2012;49.794;9.722;2022-12-16T15:57:00;14.00;;;7.73;;
3995;SDS011;2012;49.794;9.722;2022-12-16T15:59:28;20.50;;;9.33;;
3995;SDS011;2012;49.794;9.722;2022-12-16T16:02:23;19.73;;;8.57;;
3995;SDS011;2012;49.794;9.722;2022-12-16T16:05:14;14.00;;;7.80;;
3995;SDS011;2012;49.794;9.722;2022-12-16T16:08:05;15.13;;;8.47;;
3995;SDS011;2012;49.794;9.722;2022-12-16T16:10:50;17.67;;;8.60;;
3995;SDS011;2012;49.794;9.722;2022-12-16T16:13:36;17.90;;;9.33;;
3995;SDS011;2012;49.794;9.722;2022-12-16T16:16:29;14.13;;;8.50;;
3995;SDS011;2012;49.794;9.722;2022-12-16T16:19:17;13.93;;;8.40;;
3995;SDS011;2012;49.794;9.722;2022-12-16T16:22:13;13.47;;;8.10;;
3995;SDS011;2012;49.794;9.722;2022-12-16T16:25:00;20.43;;;9.10;;
3995;SDS011;2012;49.794;9.722;2022-12-16T16:27:45;12.63;;;6.97;;
3995;SDS011;2012;49.794;9.722;2022-12-16T16:30:31;12.87;;;8.00;;
3995;SDS011;2012;49.794;9.722;2022-12-16T16:33:17;12.97;;;8.47;;
3995;SDS011;2012;49.794;9.722;2022-12-16T16:36:09;13.70;;;7.70;;
3995;SDS011;2012;49.794;9.722;2022-12-16T16:38:57;15.97;;;8.10;;
3995;SDS011;2012;49.794;9.722;2022-12-16T16:41:42;18.17;;;8.40;;
3995;SDS011;2012;49.794;9.722;2022-12-16T16:44:32;13.87;;;9.03;;
3995;SDS011;2012;49.794;9.722;2022-12-16T16:47:18;12.73;;;7.37;;
3995;SDS011;2012;49.794;9.722;2022-12-16T16:50:03;13.93;;;7.90;;
3995;SDS011;2012;49.794;9.722;2022-12-16T16:52:49;18.10;;;8.40;;
3995;SDS011;2012;49.794;9.722;2022-12-16T16:55:35;14.73;;;8.27;;
3995;SDS011;2012;49.794;9.722;2022-12-16T16:58:27;13.17;;;8.57;;
3995;SDS011;2012;49.794;9.722;2022-12-16T17:01:17;13.13;;;8.13;;
3995;SDS011;2012;49.794;9.722;2022-12-16T17:04:03;13.70;;;8.23;;
3995;SDS011;2012;49.794;9.722;2022-12-16T17:06:48;16.93;;;8.60;;
3995;SDS011;2012;49.794;9.722;2022-12-16T17:09:34;10.27;;;6.20;;
3995;SDS011;2012;49.794;9.722;2022-12-16T17:12:25;13.37;;;7.70;;
3995;SDS011;2012;49.794;9.722;2022-12-16T17:15:23;12.57;;;7.63;;
3995;SDS011;2012;49.794;9.722;2022-12-16T17:18:10;31.20;;;13.20;;
3995;SDS011;2012;49.794;9.722;2022-12-16T17:20:55;29.60;;;11.93;;
3995;SDS011;2012;49.794;9.722;2022-12-16T17:23:40;18.60;;;7.63;;
3995;SDS011;2012;49.794;9.722;2022-12-16T17:26:26;47.93;;;21.87;;
3995;SDS011;2012;49.794;9.722;2022-12-16T17:29:21;45.67;;;18.80;;
3995;SDS011;2012;49.794;9.722;2022-12-16T17:32:08;17.27;;;10.53;;
3995;SDS011;2012;49.794;9.722;2022-12-16T17:34:55;18.20;;;9.57;;
3995;SDS011;2012;49.794;9.722;2022-12-16T17:37:41;18.87;;;9.40;;
3995;SDS011;2012;49.794;9.722;2022-12-16T17:40:27;51.40;;;24.00;;
3995;SDS011;2012;49.794;9.722;2022-12-16T17:43:13;38.80;;;22.73;;
3995;SDS011;2012;49.794;9.722;2022-12-16T17:46:03;11.83;;;7.90;;
3995;SDS011;2012;49.794;9.722;2022-12-16T17:48:51;11.17;;;7.23;;
3995;SDS011;2012;49.794;9.722;2022-12-16T17:51:37;11.50;;;7.13;;
3995;SDS011;2012;49.794;9.722;2022-12-16T17:54:22;14.73;;;7.93;;
3995;SDS011;2012;49.794;9.722;2022-12-16T17:57:08;12.80;;;8.40;;
3995;SDS011;2012;49.794;9.722;2022-12-16T17:59:53;13.23;;;8.07;;
3995;SDS011;2012;49.794;9.722;2022-12-16T18:02:39;11.60;;;7.53;;
3995;SDS011;2012;49.794;9.722;2022-12-16T18:05:25;10.70;;;6.80;;
3995;SDS011;2012;49.794;9.722;2022-12-16T18:08:10;12.87;;;7.20;;
3995;SDS011;2012;49.794;9.722;2022-12-16T18:10:56;12.03;;;7.00;;
3995;SDS011;2012;49.794;9.722;2022-12-16T18:13:43;15.83;;;8.87;;
3995;SDS011;2012;49.794;9.722;2022-12-16T18:16:28;14.00;;;8.60;;
3995;SDS011;2012;49.794;9.722;2022-12-16T18:19:14;19.87;;;9.33;;
3995;SDS011;2012;49.794;9.722;2022-12-16T18:22:00;15.43;;;9.40;;
3995;SDS011;2012;49.794;9.722;2022-12-16T18:24:46;14.33;;;9.40;;
3995;SDS011;2012;49.794;9.722;2022-12-16T18:27:31;14.93;;;9.47;;
3995;SDS011;2012;49.794;9.722;2022-12-16T18:30:17;18.83;;;8.17;;
3995;SDS011;2012;49.794;9.722;2022-12-16T18:33:02;16.83;;;8.93;;
3995;SDS011;2012;49.794;9.722;2022-12-16T18:35:48;16.80;;;9.77;;
3995;SDS011;2012;49.794;9.722;2022-12-16T18:38:33;17.17;;;8.53;;
3995;SDS011;2012;49.794;9.722;2022-12-16T18:41:19;18.40;;;9.83;;
3995;SDS011;2012;49.794;9.722;2022-12-16T18:44:07;16.37;;;9.50;;
3995;SDS011;2012;49.794;9.722;2022-12-16T18:46:55;15.63;;;8.93;;
3995;SDS011;2012;49.794;9.722;2022-12-16T18:49:40;15.77;;;8.47;;
3995;SDS011;2012;49.794;9.722;2022-12-16T18:52:26;18.77;;;9.00;;
3995;SDS011;2012;49.794;9.722;2022-12-16T18:55:11;11.83;;;7.13;;
3995;SDS011;2012;49.794;9.722;2022-12-16T18:57:57;14.87;;;7.97;;
3995;SDS011;2012;49.794;9.722;2022-12-16T19:01:03;17.83;;;8.07;;
3995;SDS011;2012;49.794;9.722;2022-12-16T19:03:54;14.27;;;7.50;;
3995;SDS011;2012;49.794;9.722;2022-12-16T19:06:40;11.30;;;7.70;;
3995;SDS011;2012;49.794;9.722;2022-12-16T19:09:26;12.97;;;8.17;;
3995;SDS011;2012;49.794;9.722;2022-12-16T19:12:11;10.57;;;7.53;;